createdAt,value
2023-05-10T00:00:48.294Z,26.58
2023-05-10T00:03:15.385Z,26.63
2023-05-10T00:05:42.411Z,27.70
2023-05-10T00:08:09.374Z,33.20
2023-05-10T00:10:37.233Z,25.30
2023-05-10T00:13:09.281Z,26.60
2023-05-10T00:15:36.117Z,34.90
2023-05-10T00:18:03.254Z,30.25
2023-05-10T00:20:30.223Z,30.02
2023-05-10T00:22:57.706Z,27.55
2023-05-10T00:25:25.152Z,24.80
2023-05-10T00:27:53.009Z,29.58
2023-05-10T00:30:20.088Z,31.13
2023-05-10T00:32:49.311Z,26.02
2023-05-10T00:35:17.042Z,27.48
2023-05-10T00:37:44.057Z,28.63
2023-05-10T00:40:11.338Z,32.00
2023-05-10T00:42:38.234Z,27.73
2023-05-10T00:45:07.474Z,30.42
2023-05-10T00:47:35.009Z,98.60
2023-05-10T00:50:03.465Z,41.35
2023-05-10T00:52:31.192Z,34.55
2023-05-10T00:54:59.539Z,38.67
2023-05-10T00:57:26.642Z,42.28
2023-05-10T00:59:53.621Z,42.35
2023-05-10T01:02:20.593Z,48.47
2023-05-10T01:04:47.778Z,48.88
2023-05-10T01:07:14.688Z,53.88
2023-05-10T01:09:41.563Z,54.28
2023-05-10T01:12:08.822Z,53.35
2023-05-10T01:14:37.345Z,59.35
2023-05-10T01:17:05.919Z,65.40
2023-05-10T01:19:35.937Z,64.45
2023-05-10T01:22:47.945Z,65.47
2023-05-10T01:25:24.110Z,63.35
2023-05-10T01:28:09.715Z,60.63
2023-05-10T01:31:07.282Z,60.50
2023-05-10T01:34:03.746Z,64.22
2023-05-10T01:36:41.381Z,57.20
2023-05-10T01:39:17.224Z,72.72
2023-05-10T01:42:00.683Z,68.00
2023-05-10T01:45:04.839Z,63.70
2023-05-10T01:47:49.651Z,62.63
2023-05-10T01:50:20.869Z,78.77
2023-05-10T01:52:55.486Z,71.53
2023-05-10T01:55:26.072Z,77.45
2023-05-10T01:57:59.839Z,68.45
2023-05-10T02:00:28.322Z,82.07
2023-05-10T02:02:56.117Z,79.35
2023-05-10T02:05:24.043Z,83.03
2023-05-10T02:07:52.498Z,84.85
2023-05-10T02:10:20.676Z,78.65
2023-05-10T02:12:49.596Z,68.95
2023-05-10T02:15:22.162Z,68.90
2023-05-10T02:17:49.987Z,75.38
2023-05-10T02:20:18.224Z,78.50
2023-05-10T02:22:48.093Z,74.72
2023-05-10T02:25:16.675Z,81.25
2023-05-10T02:27:45.465Z,79.13
2023-05-10T02:30:13.360Z,73.88
2023-05-10T02:32:40.891Z,83.60
2023-05-10T02:35:09.425Z,93.75
2023-05-10T02:37:37.967Z,99.82
2023-05-10T02:40:06.558Z,77.90
2023-05-10T02:42:36.746Z,93.90
2023-05-10T02:45:11.835Z,85.68
2023-05-10T02:47:39.071Z,96.87
2023-05-10T02:50:06.606Z,101.55
2023-05-10T02:52:55.251Z,95.45
2023-05-10T02:55:33.220Z,89.63
2023-05-10T02:58:01.958Z,92.32
2023-05-10T03:00:29.354Z,97.50
2023-05-10T03:02:56.207Z,91.18
2023-05-10T03:05:23.323Z,92.43
2023-05-10T03:07:50.737Z,95.38
2023-05-10T03:10:18.430Z,99.28
2023-05-10T03:12:56.849Z,108.78
2023-05-10T03:15:39.182Z,105.45
2023-05-10T03:18:13.856Z,104.05
2023-05-10T03:20:49.521Z,111.50
2023-05-10T03:23:41.838Z,109.85
2023-05-10T03:26:09.987Z,100.32
2023-05-10T03:28:37.790Z,121.20
2023-05-10T03:31:07.143Z,120.03
2023-05-10T03:33:34.533Z,98.82
2023-05-10T03:36:01.466Z,103.53
2023-05-10T03:38:30.278Z,93.60
2023-05-10T03:40:57.805Z,112.97
2023-05-10T03:43:24.721Z,111.80
2023-05-10T03:45:52.711Z,129.88
2023-05-10T03:48:19.547Z,111.47
2023-05-10T03:50:46.778Z,111.68
2023-05-10T03:53:14.248Z,103.03
2023-05-10T03:55:41.111Z,107.13
2023-05-10T03:58:12.150Z,101.82
2023-05-10T04:00:44.520Z,135.38
2023-05-10T04:03:12.652Z,120.03
2023-05-10T04:05:40.065Z,113.75
2023-05-10T04:08:07.371Z,125.63
2023-05-10T04:10:34.191Z,120.72
2023-05-10T04:13:00.986Z,102.30
2023-05-10T04:15:27.841Z,106.30
2023-05-10T04:17:54.728Z,97.65
2023-05-10T04:20:21.653Z,90.60
2023-05-10T04:22:48.512Z,81.55
2023-05-10T04:25:15.328Z,86.95
2023-05-10T04:27:42.646Z,87.03
2023-05-10T04:30:09.910Z,90.78
2023-05-10T04:32:37.206Z,92.43
2023-05-10T04:35:05.693Z,93.85
2023-05-10T04:37:32.608Z,91.10
2023-05-10T04:40:00.914Z,84.75
2023-05-10T04:42:27.710Z,96.70
2023-05-10T04:44:54.567Z,83.28
2023-05-10T04:47:21.485Z,95.38
2023-05-10T04:49:48.375Z,87.78
2023-05-10T04:52:16.114Z,108.75
2023-05-10T04:54:42.933Z,109.95
2023-05-10T04:57:09.752Z,97.47
2023-05-10T04:59:38.264Z,106.30
2023-05-10T05:02:06.234Z,110.72
2023-05-10T05:04:33.197Z,102.10
2023-05-10T05:07:00.222Z,98.40
2023-05-10T05:09:27.070Z,87.43
2023-05-10T05:11:54.046Z,90.70
2023-05-10T05:14:22.090Z,82.28
2023-05-10T05:16:48.955Z,88.55
2023-05-10T05:19:16.456Z,81.47
2023-05-10T05:21:43.321Z,83.60
2023-05-10T05:24:11.149Z,87.35
2023-05-10T05:26:37.961Z,80.55
2023-05-10T05:29:05.000Z,93.75
2023-05-10T05:31:31.943Z,85.35
2023-05-10T05:33:58.841Z,79.38
2023-05-10T05:36:25.884Z,77.38
2023-05-10T05:38:52.659Z,71.97
2023-05-10T05:41:19.555Z,65.72
2023-05-10T05:43:46.411Z,76.95
2023-05-10T05:46:13.269Z,76.97
2023-05-10T05:48:40.148Z,72.47
2023-05-10T05:51:07.487Z,58.05
2023-05-10T05:53:34.525Z,74.47
2023-05-10T05:56:01.432Z,69.15
2023-05-10T05:58:28.919Z,64.40
2023-05-10T06:00:55.767Z,52.65
2023-05-10T06:03:22.743Z,58.28
2023-05-10T06:05:49.695Z,48.58
2023-05-10T06:08:16.557Z,54.38
2023-05-10T06:10:43.497Z,43.42
2023-05-10T06:13:10.942Z,40.83
2023-05-10T06:15:38.004Z,44.55
2023-05-10T06:18:05.191Z,31.42
2023-05-10T06:20:32.599Z,24.40
2023-05-10T06:22:59.839Z,30.42
2023-05-10T06:25:26.903Z,34.38
2023-05-10T06:27:58.213Z,29.25
2023-05-10T06:30:28.564Z,29.55
2023-05-10T06:32:56.264Z,31.88
2023-05-10T06:35:23.318Z,25.52
2023-05-10T06:37:50.918Z,22.83
2023-05-10T06:40:18.254Z,23.13
2023-05-10T06:42:46.121Z,22.15
2023-05-10T06:45:13.842Z,26.33
2023-05-10T06:47:41.391Z,23.88
2023-05-10T06:50:10.136Z,21.75
2023-05-10T06:52:36.954Z,25.77
2023-05-10T06:55:04.886Z,29.70
2023-05-10T06:57:32.384Z,22.92
2023-05-10T07:00:00.277Z,23.90
2023-05-10T07:02:27.303Z,25.60
2023-05-10T07:04:54.424Z,20.00
2023-05-10T07:07:21.394Z,19.02
2023-05-10T07:09:48.295Z,23.27
2023-05-10T07:12:15.885Z,20.45
2023-05-10T07:14:43.288Z,24.20
2023-05-10T07:17:10.950Z,24.05
2023-05-10T07:19:38.061Z,29.13
2023-05-10T07:22:04.888Z,23.73
2023-05-10T07:24:37.300Z,26.70
2023-05-10T07:27:04.179Z,23.35
2023-05-10T07:29:31.173Z,27.05
2023-05-10T07:31:58.821Z,23.75
2023-05-10T07:34:26.422Z,25.52
2023-05-10T07:36:53.886Z,23.65
2023-05-10T07:39:27.721Z,22.70
2023-05-10T07:41:56.154Z,16.87
2023-05-10T07:44:23.364Z,20.23
2023-05-10T07:46:50.280Z,19.20
2023-05-10T07:49:17.422Z,18.15
2023-05-10T07:51:44.334Z,19.73
2023-05-10T07:54:11.222Z,21.35
2023-05-10T07:56:38.200Z,20.73
2023-05-10T07:59:07.369Z,22.55
2023-05-10T08:01:35.461Z,21.67
2023-05-10T08:04:03.370Z,23.10
2023-05-10T08:06:31.363Z,19.40
2023-05-10T08:08:58.802Z,23.85
2023-05-10T08:11:26.184Z,24.52
2023-05-10T08:13:53.852Z,19.00
2023-05-10T08:16:21.039Z,19.42
2023-05-10T08:18:48.775Z,20.25
2023-05-10T08:21:16.548Z,19.52
2023-05-10T08:23:48.481Z,21.65
2023-05-10T08:26:15.359Z,20.38
2023-05-10T08:28:42.203Z,19.50
2023-05-10T08:31:09.055Z,18.25
2023-05-10T08:33:46.262Z,17.73
2023-05-10T08:36:15.207Z,19.20
2023-05-10T08:38:42.222Z,17.40
2023-05-10T08:41:09.949Z,20.20
2023-05-10T08:43:55.717Z,19.70
2023-05-10T08:46:24.389Z,13.77
2023-05-10T08:48:53.103Z,15.18
2023-05-10T08:51:23.506Z,13.93
2023-05-10T08:54:16.059Z,10.45
2023-05-10T08:56:43.042Z,7.95
2023-05-10T08:59:10.156Z,7.85
2023-05-10T09:01:38.015Z,6.18
2023-05-10T09:04:41.366Z,6.82
2023-05-10T09:07:08.312Z,6.15
2023-05-10T09:09:36.205Z,4.97
2023-05-10T09:12:03.240Z,6.82
2023-05-10T09:14:30.530Z,4.97
2023-05-10T09:16:57.770Z,9.02
2023-05-10T09:19:24.588Z,6.82
2023-05-10T09:21:51.583Z,5.88
2023-05-10T09:25:21.482Z,8.25
2023-05-10T09:27:49.302Z,5.90
2023-05-10T09:30:26.610Z,5.85
2023-05-10T09:32:54.265Z,8.15
2023-05-10T09:35:25.045Z,9.13
2023-05-10T09:37:55.117Z,9.32
2023-05-10T09:40:27.700Z,9.27
2023-05-10T09:42:59.919Z,10.05
2023-05-10T09:45:31.946Z,7.90
2023-05-10T09:48:00.023Z,9.40
2023-05-10T09:50:28.460Z,8.95
2023-05-10T09:52:56.136Z,13.85
2023-05-10T09:55:25.111Z,9.80
2023-05-10T09:58:01.002Z,10.95
2023-05-10T10:00:29.113Z,10.75
2023-05-10T10:02:57.985Z,11.35
2023-05-10T10:05:32.416Z,9.05
2023-05-10T10:08:00.660Z,10.35
2023-05-10T10:10:28.725Z,10.35
2023-05-10T10:12:56.460Z,10.23
2023-05-10T10:15:24.099Z,11.20
2023-05-10T10:17:52.252Z,7.85
2023-05-10T10:20:20.779Z,9.85
2023-05-10T10:22:48.591Z,9.80
2023-05-10T10:25:17.205Z,11.18
2023-05-10T10:27:58.653Z,10.30
2023-05-10T10:30:44.646Z,7.85
2023-05-10T10:35:55.064Z,8.23
2023-05-10T10:38:22.182Z,8.02
2023-05-10T10:40:49.273Z,8.20
2023-05-10T10:43:42.484Z,8.40
2023-05-10T10:46:20.695Z,8.45
2023-05-10T10:49:09.392Z,6.90
2023-05-10T10:51:42.432Z,7.63
2023-05-10T10:54:29.526Z,6.82
2023-05-10T10:57:15.963Z,7.78
2023-05-10T10:59:45.032Z,8.45
2023-05-10T11:02:31.964Z,8.48
2023-05-10T11:05:00.249Z,10.52
2023-05-10T11:07:27.782Z,8.15
2023-05-10T11:09:55.782Z,8.38
2023-05-10T11:12:23.397Z,8.48
2023-05-10T11:14:58.825Z,10.02
2023-05-10T11:17:28.419Z,6.53
2023-05-10T11:20:11.788Z,8.25
2023-05-10T11:22:54.988Z,11.65
2023-05-10T11:25:27.694Z,9.02
2023-05-10T11:27:54.547Z,9.60
2023-05-10T11:30:21.818Z,6.68
2023-05-10T11:32:48.796Z,6.28
2023-05-10T11:35:15.822Z,5.82
2023-05-10T11:37:44.833Z,7.32
2023-05-10T11:40:12.387Z,6.20
2023-05-10T11:42:39.869Z,8.40
2023-05-10T11:45:07.486Z,9.68
2023-05-10T11:47:36.723Z,7.60
2023-05-10T11:50:04.074Z,10.45
2023-05-10T11:52:36.198Z,6.25
2023-05-10T11:55:03.698Z,6.15
2023-05-10T11:57:32.270Z,6.50
2023-05-10T11:59:59.396Z,9.15
2023-05-10T12:02:26.751Z,6.90
2023-05-10T12:04:55.878Z,6.10
2023-05-10T12:07:23.007Z,9.57
2023-05-10T12:10:11.527Z,7.28
2023-05-10T12:12:45.606Z,5.72
2023-05-10T12:15:21.049Z,7.18
2023-05-10T12:17:48.631Z,4.80
2023-05-10T12:20:22.648Z,4.18
2023-05-10T12:23:00.346Z,6.05
2023-05-10T12:25:31.928Z,3.78
2023-05-10T12:28:04.303Z,5.85
2023-05-10T12:30:33.970Z,5.60
2023-05-10T12:33:12.603Z,2.92
2023-05-10T12:36:06.133Z,2.55
2023-05-10T12:38:39.203Z,2.42
2023-05-10T12:41:11.953Z,4.65
2023-05-10T12:43:44.217Z,3.42
2023-05-10T12:46:16.983Z,4.47
2023-05-10T12:48:45.460Z,2.00
2023-05-10T12:51:14.208Z,2.80
2023-05-10T12:54:21.906Z,4.90
2023-05-10T12:56:48.801Z,4.35
2023-05-10T12:59:15.939Z,6.22
2023-05-10T13:01:42.916Z,2.55
2023-05-10T13:04:34.714Z,3.40
2023-05-10T13:07:01.662Z,3.95
2023-05-10T13:09:30.612Z,3.47
2023-05-10T13:11:57.740Z,4.90
2023-05-10T13:17:30.331Z,14.60
2023-05-10T13:20:01.349Z,12.73
2023-05-10T13:23:21.469Z,10.52
2023-05-10T13:25:49.859Z,10.93
2023-05-10T13:28:17.147Z,12.38
2023-05-10T13:30:44.058Z,10.55
2023-05-10T13:33:28.237Z,15.18
2023-05-10T13:35:57.561Z,13.70
2023-05-10T13:38:24.669Z,15.57
2023-05-10T13:40:54.232Z,19.23
2023-05-10T13:43:22.080Z,15.18
2023-05-10T13:45:49.461Z,19.00
2023-05-10T13:48:16.640Z,18.42
2023-05-10T13:50:44.434Z,18.48
2023-05-10T13:53:16.512Z,14.25
2023-05-10T13:55:43.425Z,15.30
2023-05-10T13:58:10.264Z,16.65
2023-05-10T14:00:37.155Z,18.05
2023-05-10T14:03:06.099Z,17.75
2023-05-10T14:05:33.248Z,13.98
2023-05-10T14:08:00.198Z,20.27
2023-05-10T14:10:28.484Z,13.25
2023-05-10T14:12:55.442Z,12.77
2023-05-10T14:15:22.378Z,13.80
2023-05-10T14:17:49.378Z,14.90
2023-05-10T14:20:19.819Z,11.45
2023-05-10T14:22:49.790Z,12.63
2023-05-10T14:25:20.559Z,12.48
2023-05-10T14:27:55.753Z,15.07
2023-05-10T14:30:23.141Z,15.43
2023-05-10T14:32:50.373Z,12.95
2023-05-10T14:35:19.483Z,14.35
2023-05-10T14:37:47.056Z,15.95
2023-05-10T14:40:15.321Z,14.02
2023-05-10T14:42:44.059Z,12.85
2023-05-10T14:45:12.061Z,14.07
2023-05-10T14:47:39.279Z,11.75
2023-05-10T14:50:06.892Z,12.80
2023-05-10T14:52:34.428Z,13.38
2023-05-10T14:55:02.653Z,13.43
2023-05-10T14:57:31.014Z,12.80
2023-05-10T14:59:58.070Z,13.75
2023-05-10T15:02:25.566Z,14.07
2023-05-10T15:04:59.020Z,12.73
2023-05-10T15:07:26.416Z,12.77
2023-05-10T15:09:53.347Z,16.08
2023-05-10T15:12:20.356Z,12.07
2023-05-10T15:15:03.104Z,16.67
2023-05-10T15:17:30.224Z,14.05
2023-05-10T15:19:57.364Z,11.20
2023-05-10T15:22:25.151Z,11.18
2023-05-10T15:24:59.259Z,11.57
2023-05-10T15:27:26.822Z,8.65
2023-05-10T15:29:53.996Z,8.20
2023-05-10T15:32:21.145Z,10.02
2023-05-10T15:34:48.176Z,8.10
2023-05-10T15:37:15.061Z,9.00
2023-05-10T15:39:41.883Z,8.32
2023-05-10T15:42:08.663Z,9.10
2023-05-10T15:44:36.076Z,8.07
2023-05-10T15:47:07.018Z,9.27
2023-05-10T15:49:34.060Z,7.68
2023-05-10T15:52:01.071Z,11.10
2023-05-10T15:54:53.200Z,10.32
2023-05-10T15:57:20.096Z,11.25
2023-05-10T15:59:47.043Z,9.98
2023-05-10T16:02:14.057Z,9.18
2023-05-10T16:04:55.907Z,9.82
2023-05-10T16:07:22.794Z,9.65
2023-05-10T16:09:49.669Z,7.82
2023-05-10T16:12:16.628Z,11.85
2023-05-10T16:14:49.141Z,9.00
2023-05-10T16:17:16.070Z,8.90
2023-05-10T16:19:42.947Z,11.57
2023-05-10T16:22:09.751Z,7.45
2023-05-10T16:24:36.707Z,8.07
2023-05-10T16:27:03.502Z,11.77
2023-05-10T16:29:30.438Z,8.80
2023-05-10T16:31:57.215Z,7.95
2023-05-10T16:34:50.911Z,7.80
2023-05-10T16:37:19.378Z,5.80
2023-05-10T16:39:47.848Z,5.45
2023-05-10T16:42:14.776Z,4.63
2023-05-10T16:44:42.350Z,8.15
2023-05-10T16:47:09.200Z,6.22
2023-05-10T16:49:37.338Z,5.75
2023-05-10T16:52:04.198Z,8.60
2023-05-10T16:54:31.326Z,6.60
2023-05-10T16:56:59.638Z,6.45
2023-05-10T16:59:26.755Z,6.45
2023-05-10T17:01:53.938Z,6.57
2023-05-10T17:04:26.136Z,6.18
2023-05-10T17:06:52.990Z,6.60
2023-05-10T17:09:20.616Z,9.73
2023-05-10T17:11:47.533Z,7.63
2023-05-10T17:15:05.533Z,8.48
2023-05-10T17:17:33.030Z,10.40
2023-05-10T17:19:59.947Z,10.48
2023-05-10T17:22:27.005Z,8.10
2023-05-10T17:24:54.167Z,7.75
2023-05-10T17:27:21.091Z,8.60
2023-05-10T17:29:47.865Z,8.38
2023-05-10T17:32:14.765Z,10.38
2023-05-10T17:34:41.646Z,12.45
2023-05-10T17:37:09.364Z,8.15
2023-05-10T17:39:37.513Z,9.63
2023-05-10T17:42:05.678Z,13.38
2023-05-10T17:44:32.686Z,9.82
2023-05-10T17:47:00.168Z,8.43
2023-05-10T17:49:28.789Z,10.32
2023-05-10T17:51:55.723Z,8.82
2023-05-10T17:54:27.942Z,9.82
2023-05-10T17:56:56.071Z,14.32
2023-05-10T17:59:23.037Z,13.02
2023-05-10T18:01:49.906Z,10.88
2023-05-10T18:04:16.812Z,11.98
2023-05-10T18:06:43.667Z,11.38
2023-05-10T18:09:11.246Z,11.23
2023-05-10T18:11:39.377Z,13.60
2023-05-10T18:14:06.370Z,9.93
2023-05-10T18:16:33.390Z,16.70
2023-05-10T18:19:00.241Z,13.75
2023-05-10T18:21:27.221Z,14.90
2023-05-10T18:24:57.655Z,15.45
2023-05-10T18:27:31.252Z,15.55
2023-05-10T18:29:58.284Z,13.45
2023-05-10T18:32:25.352Z,13.98
2023-05-10T18:34:57.825Z,14.90
2023-05-10T18:37:24.791Z,17.02
2023-05-10T18:39:52.037Z,15.15
2023-05-10T18:42:20.472Z,13.85
2023-05-10T18:44:53.447Z,12.63
2023-05-10T18:47:20.621Z,16.55
2023-05-10T18:49:47.482Z,16.08
2023-05-10T18:52:16.073Z,15.32
2023-05-10T18:54:43.027Z,15.15
2023-05-10T18:57:10.220Z,19.88
2023-05-10T18:59:37.264Z,14.90
2023-05-10T19:02:04.644Z,15.50
2023-05-10T19:04:59.913Z,16.33
2023-05-10T19:07:27.013Z,17.13
2023-05-10T19:09:53.952Z,15.90
2023-05-10T19:12:20.936Z,16.95
2023-05-10T19:15:04.068Z,14.38
2023-05-10T19:17:31.116Z,14.23
2023-05-10T19:20:03.005Z,16.25
2023-05-10T19:25:10.957Z,16.95
2023-05-10T19:27:37.873Z,14.60
2023-05-10T19:30:05.822Z,19.00
2023-05-10T19:32:32.938Z,15.75
2023-05-10T19:35:06.141Z,16.30
2023-05-10T19:37:33.018Z,19.00
2023-05-10T19:40:00.056Z,17.58
2023-05-10T19:42:26.861Z,17.45
2023-05-10T19:45:04.588Z,14.93
2023-05-10T19:47:31.442Z,16.30
2023-05-10T19:49:58.823Z,17.42
2023-05-10T19:52:25.940Z,19.85
2023-05-10T19:55:26.331Z,16.35
2023-05-10T19:57:53.450Z,17.67
2023-05-10T20:00:21.670Z,21.63
2023-05-10T20:02:49.756Z,17.27
2023-05-10T20:05:17.113Z,16.60
2023-05-10T20:07:44.415Z,15.82
2023-05-10T20:10:11.708Z,15.18
2023-05-10T20:12:38.604Z,12.23
2023-05-10T20:15:11.113Z,12.38
2023-05-10T20:17:37.976Z,14.18
2023-05-10T20:20:05.425Z,14.68
2023-05-10T20:22:32.222Z,16.92
2023-05-10T20:25:04.850Z,12.88
2023-05-10T20:27:31.756Z,11.90
2023-05-10T20:29:58.699Z,12.35
2023-05-10T20:32:25.629Z,12.70
2023-05-10T20:34:57.684Z,12.27
2023-05-10T20:37:24.593Z,12.15
2023-05-10T20:39:51.424Z,12.30
2023-05-10T20:42:18.395Z,12.73
2023-05-10T20:44:45.286Z,11.05
2023-05-10T20:47:13.901Z,16.60
2023-05-10T20:49:40.944Z,13.40
2023-05-10T20:52:08.345Z,13.32
2023-05-10T20:54:40.846Z,12.60
2023-05-10T20:57:07.883Z,13.63
2023-05-10T20:59:34.892Z,11.98
2023-05-10T21:02:01.830Z,13.73
2023-05-10T21:04:34.517Z,11.77
2023-05-10T21:07:01.632Z,14.88
2023-05-10T21:09:28.511Z,14.38
2023-05-10T21:11:55.448Z,16.58
2023-05-10T21:14:27.804Z,13.20
2023-05-10T21:16:55.073Z,13.52
2023-05-10T21:19:22.253Z,12.25
2023-05-10T21:21:51.751Z,16.05
2023-05-10T21:24:23.294Z,15.25
2023-05-10T21:26:50.351Z,13.07
2023-05-10T21:29:17.178Z,10.65
2023-05-10T21:31:44.047Z,13.07
2023-05-10T21:34:11.052Z,12.77
2023-05-10T21:36:37.873Z,18.92
2023-05-10T21:39:04.926Z,19.33
2023-05-10T21:41:31.770Z,12.50
2023-05-10T21:44:04.042Z,11.57
2023-05-10T21:46:31.006Z,15.45
2023-05-10T21:48:58.094Z,11.73
2023-05-10T21:51:24.979Z,15.07
2023-05-10T21:54:11.917Z,13.50
2023-05-10T21:56:38.842Z,12.68
2023-05-10T21:59:06.093Z,16.02
2023-05-10T22:01:32.968Z,13.63
2023-05-10T22:04:24.980Z,11.30
2023-05-10T22:06:51.963Z,12.05
2023-05-10T22:09:18.956Z,13.70
2023-05-10T22:11:45.959Z,16.05
2023-05-10T22:14:18.225Z,12.80
2023-05-10T22:16:45.130Z,14.80
2023-05-10T22:19:12.145Z,15.40
2023-05-10T22:21:39.287Z,19.05
2023-05-10T22:24:11.432Z,17.30
2023-05-10T22:26:38.272Z,15.68
2023-05-10T22:29:05.149Z,16.92
2023-05-10T22:31:32.248Z,16.10
2023-05-10T22:34:25.163Z,21.35
2023-05-10T22:36:52.515Z,18.50
2023-05-10T22:39:19.384Z,18.73
2023-05-10T22:41:46.622Z,18.67
2023-05-10T22:44:13.422Z,18.27
2023-05-10T22:46:40.420Z,20.23
2023-05-10T22:49:07.459Z,18.83
2023-05-10T22:51:34.884Z,21.00
2023-05-10T22:54:53.271Z,16.77
2023-05-10T22:57:20.184Z,17.85
2023-05-10T22:59:48.779Z,17.85
2023-05-10T23:02:16.277Z,21.02
2023-05-10T23:04:43.434Z,21.52
2023-05-10T23:07:10.313Z,20.45
2023-05-10T23:09:37.165Z,17.85
2023-05-10T23:12:04.480Z,20.90
2023-05-10T23:14:38.504Z,21.00
2023-05-10T23:17:05.533Z,23.52
2023-05-10T23:19:32.334Z,21.42
2023-05-10T23:21:59.649Z,23.35
2023-05-10T23:24:27.368Z,20.73
2023-05-10T23:26:54.111Z,26.33
2023-05-10T23:29:21.305Z,24.02
2023-05-10T23:31:51.599Z,23.13
2023-05-10T23:34:18.579Z,27.20
2023-05-10T23:36:45.471Z,24.02
2023-05-10T23:39:12.609Z,24.23
2023-05-10T23:41:39.457Z,22.25
2023-05-10T23:45:03.077Z,25.67
2023-05-10T23:47:29.927Z,23.33
2023-05-10T23:49:57.043Z,27.35
2023-05-10T23:52:25.158Z,30.08
2023-05-10T23:54:52.629Z,25.42
2023-05-10T23:57:19.716Z,23.90
2023-05-10T23:59:46.798Z,26.30
